Stephanie A Settoon — WDD9594 — position and weather

sailwx.info

Track history (hours):
 
Tides and Currents Weather Stations Pressure Air Temp Water Temp Dewpoint Dewpoint Depression Visibility Wind Speed Wind Dir Waves Ship Positions

Stephanie A Settoon

Owner: Settoon Towing LLC, Houma, LA. More information available from US FCC via Universal Licensing System and Coast Guard Vessel Documentation Center.

Last reported at 2018-Feb-21 16:39 UTC. Time now 2018-Feb-23 00:49 UTC.
Position N 29°34' W 090°32'.

Length 15 m.

Type: Other ship. MMSI: 367313530.

Date/timePositionNaut miles runAvg speedWind from/ knotsBaromVisibWave heightAir tempDewpointWater temp
2018-Feb-21 16:39N 29°34' W 090°32'1 6.8
2018-Feb-21 16:30N 29°34' W 090°33'2 3.5
2018-Feb-21 15:59N 29°35' W 090°35'0 0.0
2018-Feb-21 15:29N 29°35' W 090°35'0 0.0
2018-Feb-21 14:55N 29°35' W 090°35'0 0.0
2018-Feb-21 13:36N 29°35' W 090°35'0 0.0
2018-Feb-21 13:05N 29°35' W 090°35'0 0.1
2018-Feb-21 12:59N 29°35' W 090°35'0 0.0
2018-Feb-21 12:29N 29°35' W 090°35'0 0.0
2018-Feb-21 11:17N 29°35' W 090°35'0 0.0
2018-Feb-21 11:00N 29°35' W 090°35'0 0.0
2018-Feb-21 10:22N 29°35' W 090°35'0 0.0
2018-Feb-21 09:45N 29°35' W 090°35'0 0.0
2018-Feb-21 09:27N 29°35' W 090°35'0 0.0
2018-Feb-21 08:56N 29°35' W 090°35'0 0.0
2018-Feb-21 08:21N 29°35' W 090°35'0 0.0
2018-Feb-21 08:00N 29°35' W 090°35'0 0.0
2018-Feb-21 07:28N 29°35' W 090°35'0 0.0
2018-Feb-21 06:40N 29°35' W 090°35'0 0.0
2018-Feb-21 06:12N 29°35' W 090°35'0 0.0
2018-Feb-21 05:54N 29°35' W 090°35'0 0.0
2018-Feb-21 05:29N 29°35' W 090°35'0 0.0
2018-Feb-21 04:58N 29°35' W 090°35'0 0.0
2018-Feb-21 04:30N 29°35' W 090°35'0 0.0
2018-Feb-21 03:59N 29°35' W 090°35'0 0.0
2018-Feb-21 03:30N 29°35' W 090°35'0 0.0
2018-Feb-21 02:50N 29°35' W 090°35'0 0.0
2018-Feb-21 02:30N 29°35' W 090°35'0 0.0
2018-Feb-21 01:04N 29°35' W 090°35'0 0.3
2018-Feb-21 00:59N 29°35' W 090°35'2 4.9
2018-Feb-21 00:30N 29°35' W 090°38'3 6.9
2018-Feb-21 00:00N 29°37' W 090°41'2 4.1
2018-Feb-20 23:30N 29°35' W 090°43'2 3.6
2018-Feb-20 23:00N 29°34' W 090°44'3 5.3
2018-Feb-20 22:30N 29°32' W 090°47'8 0.4
2018-Feb-20 00:30N 29°34' W 090°56'4 6.1
2018-Feb-19 23:49N 29°32' W 090°52'2 6.2
2018-Feb-19 23:30N 29°32' W 090°49'3 6.2
2018-Feb-19 23:00N 29°32' W 090°46'3 5.6
2018-Feb-19 22:30N 29°34' W 090°43'1 1.8
2018-Feb-19 22:00N 29°35' W 090°43'0 0.2
2018-Feb-19 21:30N 29°35' W 090°43'0 0.0
2018-Feb-19 21:00N 29°35' W 090°43'1 2.3
2018-Feb-19 20:30N 29°34' W 090°43'3 6.0
2018-Feb-19 20:00N 29°31' W 090°43'3 6.3
2018-Feb-19 19:29N 29°28' W 090°43'3 0.1
2018-Feb-18 03:20N 29°25' W 090°44'3 7.5
2018-Feb-18 03:00N 29°27' W 090°43'4 7.6
2018-Feb-18 02:30N 29°31' W 090°43'4 7.0
2018-Feb-18 02:00N 29°34' W 090°43'1 1.2
2018-Feb-18 01:29N 29°35' W 090°43'0 0.0
2018-Feb-18 01:00N 29°35' W 090°43'0 0.1
2018-Feb-18 00:30N 29°35' W 090°43'2 4.5
2018-Feb-18 00:00N 29°33' W 090°45'3 6.7
2018-Feb-17 23:30N 29°32' W 090°49'  
2018-Feb-13 04:51N 29°34' W 090°56'3 6.1
2018-Feb-13 04:21N 29°32' W 090°53'2 5.9
2018-Feb-13 04:01N 29°32' W 090°51'3 6.0
2018-Feb-13 03:31N 29°32' W 090°47'3 5.2
2018-Feb-13 03:01N 29°34' W 090°45'2 3.9
2018-Feb-13 02:30N 29°35' W 090°43'0 0.1
2018-Feb-13 02:00N 29°35' W 090°43'0 0.0
2018-Feb-13 01:31N 29°35' W 090°43'0 0.2
2018-Feb-13 01:01N 29°35' W 090°43'1 2.8
2018-Feb-13 00:30N 29°36' W 090°43'2 3.5
2018-Feb-13 00:01N 29°36' W 090°41'3 5.5
2018-Feb-12 23:31N 29°35' W 090°38'3 6.0
2018-Feb-12 23:01N 29°34' W 090°34'3 6.2
2018-Feb-12 22:30N 29°34' W 090°31'  
Track history (hours):
 
Tides and Currents Weather Stations Pressure Air Temp Water Temp Dewpoint Dewpoint Depression Visibility Wind Speed Wind Dir Waves Ship Positions

Stephanie A Settoon

Owner: Settoon Towing LLC, Houma, LA. More information available from US FCC via Universal Licensing System and Coast Guard Vessel Documentation Center.

Last reported at 2018-Feb-21 16:39 UTC. Time now 2018-Feb-23 00:49 UTC.
Position N 29°34' W 090°32'.

Length 15 m.

Type: Other ship. MMSI: 367313530.

Date/timePositionNaut miles runAvg speedWind from/ knotsBaromVisibWave heightAir tempDewpointWater temp
2018-Feb-21 16:39N 29°34' W 090°32'1 6.8
2018-Feb-21 16:30N 29°34' W 090°33'2 3.5
2018-Feb-21 15:59N 29°35' W 090°35'0 0.0
2018-Feb-21 15:29N 29°35' W 090°35'0 0.0
2018-Feb-21 14:55N 29°35' W 090°35'0 0.0
2018-Feb-21 13:36N 29°35' W 090°35'0 0.0
2018-Feb-21 13:05N 29°35' W 090°35'0 0.1
2018-Feb-21 12:59N 29°35' W 090°35'0 0.0
2018-Feb-21 12:29N 29°35' W 090°35'0 0.0
2018-Feb-21 11:17N 29°35' W 090°35'0 0.0
2018-Feb-21 11:00N 29°35' W 090°35'0 0.0
2018-Feb-21 10:22N 29°35' W 090°35'0 0.0
2018-Feb-21 09:45N 29°35' W 090°35'0 0.0
2018-Feb-21 09:27N 29°35' W 090°35'0 0.0
2018-Feb-21 08:56N 29°35' W 090°35'0 0.0
2018-Feb-21 08:21N 29°35' W 090°35'0 0.0
2018-Feb-21 08:00N 29°35' W 090°35'0 0.0
2018-Feb-21 07:28N 29°35' W 090°35'0 0.0
2018-Feb-21 06:40N 29°35' W 090°35'0 0.0
2018-Feb-21 06:12N 29°35' W 090°35'0 0.0
2018-Feb-21 05:54N 29°35' W 090°35'0 0.0
2018-Feb-21 05:29N 29°35' W 090°35'0 0.0
2018-Feb-21 04:58N 29°35' W 090°35'0 0.0
2018-Feb-21 04:30N 29°35' W 090°35'0 0.0
2018-Feb-21 03:59N 29°35' W 090°35'0 0.0
2018-Feb-21 03:30N 29°35' W 090°35'0 0.0
2018-Feb-21 02:50N 29°35' W 090°35'0 0.0
2018-Feb-21 02:30N 29°35' W 090°35'0 0.0
2018-Feb-21 01:04N 29°35' W 090°35'0 0.3
2018-Feb-21 00:59N 29°35' W 090°35'2 4.9
2018-Feb-21 00:30N 29°35' W 090°38'3 6.9
2018-Feb-21 00:00N 29°37' W 090°41'2 4.1
2018-Feb-20 23:30N 29°35' W 090°43'2 3.6
2018-Feb-20 23:00N 29°34' W 090°44'3 5.3
2018-Feb-20 22:30N 29°32' W 090°47'8 0.4
2018-Feb-20 00:30N 29°34' W 090°56'4 6.1
2018-Feb-19 23:49N 29°32' W 090°52'2 6.2
2018-Feb-19 23:30N 29°32' W 090°49'3 6.2
2018-Feb-19 23:00N 29°32' W 090°46'3 5.6
2018-Feb-19 22:30N 29°34' W 090°43'1 1.8
2018-Feb-19 22:00N 29°35' W 090°43'0 0.2
2018-Feb-19 21:30N 29°35' W 090°43'0 0.0
2018-Feb-19 21:00N 29°35' W 090°43'1 2.3
2018-Feb-19 20:30N 29°34' W 090°43'3 6.0
2018-Feb-19 20:00N 29°31' W 090°43'3 6.3
2018-Feb-19 19:29N 29°28' W 090°43'3 0.1
2018-Feb-18 03:20N 29°25' W 090°44'3 7.5
2018-Feb-18 03:00N 29°27' W 090°43'4 7.6
2018-Feb-18 02:30N 29°31' W 090°43'4 7.0
2018-Feb-18 02:00N 29°34' W 090°43'1 1.2
2018-Feb-18 01:29N 29°35' W 090°43'0 0.0
2018-Feb-18 01:00N 29°35' W 090°43'0 0.1
2018-Feb-18 00:30N 29°35' W 090°43'2 4.5
2018-Feb-18 00:00N 29°33' W 090°45'3 6.7
2018-Feb-17 23:30N 29°32' W 090°49'  
2018-Feb-13 04:51N 29°34' W 090°56'3 6.1
2018-Feb-13 04:21N 29°32' W 090°53'2 5.9
2018-Feb-13 04:01N 29°32' W 090°51'3 6.0
2018-Feb-13 03:31N 29°32' W 090°47'3 5.2
2018-Feb-13 03:01N 29°34' W 090°45'2 3.9
2018-Feb-13 02:30N 29°35' W 090°43'0 0.1
2018-Feb-13 02:00N 29°35' W 090°43'0 0.0
2018-Feb-13 01:31N 29°35' W 090°43'0 0.2
2018-Feb-13 01:01N 29°35' W 090°43'1 2.8
2018-Feb-13 00:30N 29°36' W 090°43'2 3.5
2018-Feb-13 00:01N 29°36' W 090°41'3 5.5
2018-Feb-12 23:31N 29°35' W 090°38'3 6.0
2018-Feb-12 23:01N 29°34' W 090°34'3 6.2
2018-Feb-12 22:30N 29°34' W 090°31'  

Dump ship's entire track history